Time;durP1;ratioP1;P1;durP2;ratioP2;P2;SDS_P1;SDS_P2;PMS_P1;PMS_P2;Temp;Humidity;BMP_temperature;BMP_pressure;BME280_temperature;BME280_humidity;BME280_pressure;Samples;Min_cycle;Max_cycle;Signal;HPM_P1;HPM_P2
2023/08/29 00:02:24;;;;;;;3.40;3.00;;;17.80;99.90;;;;;;4945246;28;20286;-76
2023/08/29 00:04:50;;;;;;;3.60;3.30;;;17.70;99.90;;;;;;4940632;28;20215;-75
2023/08/29 00:07:15;;;;;;;5.83;3.70;;;17.60;99.90;;;;;;4937617;28;20286;-75
2023/08/29 00:09:41;;;;;;;4.43;3.40;;;17.70;99.90;;;;;;4939809;28;20669;-75
2023/08/29 00:12:07;;;;;;;5.10;3.27;;;17.70;99.90;;;;;;4937513;28;20179;-76
2023/08/29 00:14:33;;;;;;;5.30;3.40;;;17.70;99.90;;;;;;4941681;28;20203;-76
2023/08/29 00:16:59;;;;;;;3.77;3.20;;;17.70;99.90;;;;;;4940227;28;20245;-76
2023/08/29 00:19:25;;;;;;;6.37;3.30;;;17.70;99.90;;;;;;4938289;28;20973;-76
2023/08/29 00:21:51;;;;;;;4.37;3.37;;;17.60;99.90;;;;;;4941043;28;20851;-76
2023/08/29 00:24:16;;;;;;;4.50;3.60;;;17.70;99.90;;;;;;4935946;28;20269;-76
2023/08/29 00:26:42;;;;;;;7.63;4.07;;;17.70;99.90;;;;;;4941180;28;20996;-76
2023/08/29 00:29:08;;;;;;;4.87;3.50;;;17.60;99.90;;;;;;4940360;28;20741;-76
2023/08/29 00:31:33;;;;;;;3.90;3.60;;;17.60;99.90;;;;;;4937136;28;20193;-76
2023/08/29 00:33:59;;;;;;;5.50;3.43;;;17.70;99.90;;;;;;4939274;28;20223;-75
2023/08/29 00:36:24;;;;;;;4.57;3.90;;;17.70;99.90;;;;;;4940179;28;20195;-76
2023/08/29 00:38:50;;;;;;;6.03;3.83;;;17.60;99.90;;;;;;4942388;28;20229;-76
2023/08/29 00:41:15;;;;;;;7.77;3.50;;;17.70;99.90;;;;;;4935818;28;20180;-76
2023/08/29 00:43:41;;;;;;;3.80;3.33;;;17.70;99.90;;;;;;4939662;28;20590;-76
2023/08/29 00:46:06;;;;;;;6.20;3.60;;;17.70;99.90;;;;;;4939500;28;20195;-76
2023/08/29 00:48:33;;;;;;;5.03;3.40;;;17.70;99.90;;;;;;4944419;28;20786;-76
2023/08/29 00:50:59;;;;;;;5.20;3.40;;;17.60;99.90;;;;;;4942605;28;20189;-76
2023/08/29 00:53:25;;;;;;;6.37;3.80;;;17.70;99.90;;;;;;4945365;28;20430;-76
2023/08/29 00:55:51;;;;;;;4.10;3.57;;;17.70;99.90;;;;;;4939683;28;20438;-76
2023/08/29 00:58:18;;;;;;;4.27;3.70;;;17.60;99.90;;;;;;4942330;28;20437;-76
2023/08/29 01:00:45;;;;;;;5.90;3.90;;;17.50;99.90;;;;;;4939413;28;20236;-76
2023/08/29 01:03:11;;;;;;;4.20;3.47;;;17.50;99.90;;;;;;4939616;28;20448;-76
2023/08/29 01:05:37;;;;;;;5.23;3.73;;;17.50;99.90;;;;;;4937132;28;20867;-76
2023/08/29 01:08:03;;;;;;;5.90;3.90;;;17.50;99.90;;;;;;4942235;28;20187;-79
2023/08/29 01:11:11;;;;;;;7.53;3.63;;;17.50;99.90;;;;;;4940512;28;20763;-76
2023/08/29 01:13:47;;;;;;;4.50;3.70;;;17.50;99.90;;;;;;4940365;28;20559;-76
2023/08/29 01:16:15;;;;;;;8.23;4.47;;;17.50;99.90;;;;;;4938430;28;20858;-77
2023/08/29 01:18:46;;;;;;;4.60;3.77;;;17.50;99.90;;;;;;4940546;28;20829;-76
2023/08/29 01:21:26;;;;;;;5.00;3.70;;;17.50;99.90;;;;;;4939413;28;20434;-76
2023/08/29 01:24:01;;;;;;;4.50;3.50;;;17.50;99.90;;;;;;4940491;28;20890;-76
2023/08/29 01:26:28;;;;;;;4.03;3.50;;;17.60;99.90;;;;;;4938368;28;20450;-76
2023/08/29 01:28:55;;;;;;;4.90;3.97;;;17.60;99.90;;;;;;4938684;28;20435;-76
2023/08/29 01:31:21;;;;;;;7.03;3.50;;;17.50;99.90;;;;;;4935702;28;20450;-76
2023/08/29 01:33:47;;;;;;;5.03;3.80;;;17.50;99.90;;;;;;4941424;28;20929;-76
2023/08/29 01:36:13;;;;;;;4.03;3.50;;;17.50;99.90;;;;;;4938967;28;20458;-76
2023/08/29 01:38:38;;;;;;;3.90;3.47;;;17.50;99.90;;;;;;4941302;28;20434;-76
2023/08/29 01:41:04;;;;;;;3.37;3.07;;;17.50;99.90;;;;;;4935585;28;20194;-76
2023/08/29 01:43:30;;;;;;;5.40;3.43;;;17.50;99.90;;;;;;4940250;28;20545;-76
2023/08/29 01:45:55;;;;;;;4.03;3.70;;;17.50;99.90;;;;;;4938862;28;20214;-76
2023/08/29 01:48:21;;;;;;;12.43;4.10;;;17.50;99.90;;;;;;4943717;28;20191;-76
2023/08/29 01:50:48;;;;;;;5.50;3.70;;;17.40;99.90;;;;;;4935537;28;20202;-76
2023/08/29 01:53:14;;;;;;;4.93;3.90;;;17.40;99.90;;;;;;4940220;28;20449;-75
2023/08/29 01:55:40;;;;;;;3.87;3.57;;;17.40;99.90;;;;;;4947117;28;20541;-75
2023/08/29 01:58:07;;;;;;;7.00;3.30;;;17.40;99.90;;;;;;4944756;28;20182;-76
2023/08/29 02:00:33;;;;;;;5.20;4.10;;;17.40;99.90;;;;;;4942203;28;20441;-76
2023/08/29 02:02:59;;;;;;;4.73;4.07;;;17.50;99.90;;;;;;4942136;28;20978;-76
2023/08/29 02:05:25;;;;;;;4.70;3.83;;;17.50;99.90;;;;;;4940696;28;20466;-76
2023/08/29 02:07:50;;;;;;;3.90;3.47;;;17.50;99.90;;;;;;4947500;28;20189;-76
2023/08/29 02:10:16;;;;;;;5.13;3.73;;;17.40;99.90;;;;;;4939863;28;20596;-77
2023/08/29 02:12:42;;;;;;;6.67;4.23;;;17.40;99.90;;;;;;4939781;28;20984;-77
2023/08/29 02:15:08;;;;;;;5.37;4.00;;;17.40;99.90;;;;;;4937799;28;20463;-76
2023/08/29 02:17:36;;;;;;;5.13;3.77;;;17.30;99.90;;;;;;4937507;28;20183;-76
2023/08/29 02:20:03;;;;;;;17.07;5.10;;;17.30;99.90;;;;;;4939856;28;20983;-76
2023/08/29 02:22:30;;;;;;;5.30;3.97;;;17.40;99.90;;;;;;4940489;28;20441;-75
2023/08/29 02:24:56;;;;;;;7.00;4.13;;;17.30;99.90;;;;;;4941257;28;20553;-76
2023/08/29 02:27:21;;;;;;;4.10;3.57;;;17.30;99.90;;;;;;4942559;28;20781;-76
2023/08/29 02:29:50;;;;;;;5.57;4.03;;;17.20;99.90;;;;;;4939475;28;20438;-75
2023/08/29 02:32:17;;;;;;;6.80;4.50;;;17.20;99.90;;;;;;4947535;28;20175;-75
2023/08/29 02:34:43;;;;;;;6.00;4.50;;;17.30;99.90;;;;;;4943443;28;20458;-76
2023/08/29 02:37:09;;;;;;;5.20;4.70;;;17.20;99.90;;;;;;4945118;28;20469;-76
2023/08/29 02:39:34;;;;;;;5.10;4.23;;;17.20;99.90;;;;;;4945848;28;20645;-76
2023/08/29 02:42:00;;;;;;;5.70;4.40;;;17.10;99.90;;;;;;4939181;28;20206;-76
2023/08/29 02:44:25;;;;;;;4.83;4.33;;;17.10;99.90;;;;;;4945831;28;20596;-76
2023/08/29 02:46:51;;;;;;;6.00;4.43;;;17.20;99.90;;;;;;4947557;28;20182;-76
2023/08/29 02:49:16;;;;;;;5.10;3.80;;;17.20;99.90;;;;;;4942240;28;20680;-76
2023/08/29 02:51:42;;;;;;;8.00;4.50;;;17.30;99.90;;;;;;4946782;28;20638;-76
2023/08/29 02:54:07;;;;;;;5.53;4.23;;;17.20;99.90;;;;;;4941638;28;20769;-76
2023/08/29 02:56:33;;;;;;;6.37;4.43;;;17.20;99.90;;;;;;4940419;28;20637;-76
2023/08/29 02:58:58;;;;;;;8.73;5.10;;;17.20;99.90;;;;;;4943703;28;20195;-75
2023/08/29 03:01:24;;;;;;;6.83;5.07;;;17.10;99.90;;;;;;4941880;28;20191;-75
2023/08/29 03:03:50;;;;;;;7.30;4.83;;;17.10;99.90;;;;;;4945293;28;20238;-75
2023/08/29 03:06:15;;;;;;;6.37;4.50;;;17.10;99.90;;;;;;4942369;28;20275;-75
2023/08/29 03:08:41;;;;;;;5.77;4.80;;;17.10;99.90;;;;;;4947325;28;20221;-75
2023/08/29 03:11:09;;;;;;;8.90;5.53;;;17.10;99.90;;;;;;4943339;28;20191;-75
2023/08/29 03:13:35;;;;;;;6.07;5.30;;;17.20;99.90;;;;;;4944038;28;20179;-76
2023/08/29 03:16:00;;;;;;;5.30;4.50;;;17.30;99.90;;;;;;4945170;28;20961;-76
2023/08/29 03:18:28;;;;;;;6.40;5.20;;;17.20;99.90;;;;;;4947823;28;20196;-76
2023/08/29 03:20:55;;;;;;;9.00;5.10;;;17.20;99.90;;;;;;4945409;28;20670;-76
2023/08/29 03:23:21;;;;;;;6.27;5.30;;;17.10;99.90;;;;;;4942176;28;20445;-76
2023/08/29 03:25:47;;;;;;;9.27;5.53;;;17.10;99.90;;;;;;4948299;28;20470;-76
2023/08/29 03:28:13;;;;;;;7.07;5.13;;;17.10;99.90;;;;;;4942541;28;20306;-75
2023/08/29 03:30:38;;;;;;;6.90;6.20;;;17.10;99.90;;;;;;4947493;28;20458;-74
2023/08/29 03:33:04;;;;;;;8.53;6.77;;;17.10;99.90;;;;;;4949231;28;20602;-75
2023/08/29 03:35:30;;;;;;;6.50;5.90;;;16.90;99.90;;;;;;4946624;28;20214;-76
2023/08/29 03:37:55;;;;;;;6.23;5.60;;;16.90;99.90;;;;;;4941928;28;20585;-76
2023/08/29 03:40:21;;;;;;;6.90;6.20;;;17.10;99.90;;;;;;4941393;28;20191;-75
2023/08/29 03:42:47;;;;;;;7.13;5.80;;;17.10;99.90;;;;;;4937806;28;20288;-75
2023/08/29 03:45:12;;;;;;;7.10;5.90;;;17.00;99.90;;;;;;4941727;28;20717;-75
2023/08/29 03:47:39;;;;;;;7.67;6.07;;;17.10;99.90;;;;;;4943511;28;20190;-75
2023/08/29 03:50:06;;;;;;;6.97;6.20;;;17.10;99.90;;;;;;4938905;28;20674;-75
2023/08/29 03:52:31;;;;;;;6.53;5.93;;;17.00;99.90;;;;;;4942522;28;20433;-76
2023/08/29 03:54:57;;;;;;;8.07;5.57;;;17.00;99.90;;;;;;4943425;28;20466;-76
2023/08/29 03:57:23;;;;;;;10.17;6.40;;;17.00;99.90;;;;;;4940360;28;20461;-76
2023/08/29 03:59:49;;;;;;;9.20;5.80;;;16.90;99.90;;;;;;4943418;28;20242;-76
2023/08/29 04:02:15;;;;;;;6.97;6.13;;;17.00;99.90;;;;;;4940315;28;20450;-76
2023/08/29 04:04:44;;;;;;;9.17;7.40;;;16.90;99.90;;;;;;4940487;28;20287;-76
2023/08/29 04:07:10;;;;;;;8.20;6.70;;;16.90;99.90;;;;;;4940472;28;20526;-76
2023/08/29 04:09:35;;;;;;;7.80;6.77;;;16.90;99.90;;;;;;4941542;28;20467;-76
2023/08/29 04:12:01;;;;;;;9.10;6.70;;;17.00;99.90;;;;;;4944396;28;20466;-76
2023/08/29 04:14:27;;;;;;;16.77;6.20;;;17.00;99.90;;;;;;4941071;28;20454;-76
2023/08/29 04:16:52;;;;;;;8.47;6.23;;;17.00;99.90;;;;;;4937810;28;20180;-76
2023/08/29 04:19:18;;;;;;;9.63;6.27;;;17.00;99.90;;;;;;4947794;28;20726;-76
2023/08/29 04:21:43;;;;;;;7.80;6.83;;;17.00;99.90;;;;;;4937824;28;20271;-76
2023/08/29 04:24:10;;;;;;;7.30;6.57;;;17.00;99.90;;;;;;4943379;28;20245;-76
2023/08/29 04:26:35;;;;;;;6.57;5.97;;;16.90;99.90;;;;;;4941238;28;21048;-76
2023/08/29 04:29:01;;;;;;;7.53;6.67;;;16.90;99.90;;;;;;4943546;28;20444;-76
2023/08/29 04:31:26;;;;;;;7.43;6.73;;;16.90;99.90;;;;;;4943000;28;20730;-76
2023/08/29 04:33:52;;;;;;;7.77;7.03;;;16.90;99.90;;;;;;4944661;28;20219;-77
2023/08/29 04:36:18;;;;;;;6.83;6.13;;;16.90;99.90;;;;;;4940160;28;20199;-76
2023/08/29 04:38:47;;;;;;;9.60;6.97;;;16.80;99.90;;;;;;4942044;28;20595;-76
2023/08/29 04:41:13;;;;;;;7.93;7.13;;;16.80;99.90;;;;;;4941288;28;20182;-76
2023/08/29 04:43:39;;;;;;;7.27;6.67;;;16.90;99.90;;;;;;4940887;28;20438;-75
2023/08/29 04:46:07;;;;;;;8.70;7.07;;;16.90;99.90;;;;;;4943613;28;20525;-74
2023/08/29 04:48:33;;;;;;;9.17;7.53;;;16.90;99.90;;;;;;4941431;28;20195;-75
2023/08/29 04:50:58;;;;;;;9.40;8.27;;;16.90;99.90;;;;;;4940596;28;20937;-75
2023/08/29 04:53:24;;;;;;;7.10;6.40;;;16.80;99.90;;;;;;4940749;28;20442;-76
2023/08/29 04:55:57;;;;;;;7.10;6.50;;;16.80;99.90;;;;;;4938501;28;20210;-76
2023/08/29 04:58:22;;;;;;;11.70;7.40;;;16.80;99.90;;;;;;4940109;28;20257;-76
2023/08/29 05:00:50;;;;;;;7.70;6.90;;;16.70;99.90;;;;;;4942183;28;21105;-75
2023/08/29 05:03:15;;;;;;;12.67;8.60;;;16.70;99.90;;;;;;4940329;28;20210;-75
2023/08/29 05:05:46;;;;;;;8.13;7.43;;;16.70;99.90;;;;;;4939639;28;20514;-76
2023/08/29 05:08:11;;;;;;;7.90;7.20;;;16.70;99.90;;;;;;4938177;28;20190;-75
2023/08/29 05:10:37;;;;;;;8.63;7.07;;;16.70;99.90;;;;;;4939561;28;20442;-75
2023/08/29 05:13:03;;;;;;;9.27;7.47;;;16.70;99.90;;;;;;4944667;28;20552;-76
2023/08/29 05:15:29;;;;;;;8.30;7.50;;;16.70;99.90;;;;;;4941039;28;20716;-76
2023/08/29 05:17:55;;;;;;;8.10;7.40;;;16.70;99.90;;;;;;4946829;28;20435;-76
2023/08/29 05:20:20;;;;;;;8.23;7.43;;;16.80;99.90;;;;;;4940582;28;20437;-75
2023/08/29 05:22:46;;;;;;;7.13;6.53;;;16.80;99.90;;;;;;4943198;28;20668;-76
2023/08/29 05:25:11;;;;;;;8.93;8.13;;;16.80;99.90;;;;;;4939898;28;20219;-76
2023/08/29 05:27:37;;;;;;;9.40;8.40;;;16.90;99.90;;;;;;4939642;28;20187;-75
2023/08/29 05:30:04;;;;;;;7.70;7.00;;;16.80;99.90;;;;;;4938120;28;20179;-75
2023/08/29 05:32:30;;;;;;;8.37;7.47;;;16.80;99.90;;;;;;4939021;28;20207;-76
2023/08/29 05:34:56;;;;;;;8.83;7.70;;;16.80;99.90;;;;;;4939908;28;20474;-76
2023/08/29 05:37:22;;;;;;;8.53;7.60;;;16.90;99.90;;;;;;4937822;28;20439;-77
2023/08/29 05:39:47;;;;;;;8.90;8.10;;;16.90;99.90;;;;;;4939578;28;20266;-77
2023/08/29 05:42:13;;;;;;;7.67;6.93;;;16.80;99.90;;;;;;4943546;28;20221;-77
2023/08/29 05:44:39;;;;;;;8.43;7.37;;;16.80;99.90;;;;;;4944394;28;20211;-75
2023/08/29 05:47:04;;;;;;;8.10;7.30;;;16.90;99.90;;;;;;4941330;28;20194;-76
2023/08/29 05:49:30;;;;;;;8.07;7.20;;;16.80;99.90;;;;;;4942906;28;20259;-76
2023/08/29 05:51:55;;;;;;;8.43;7.53;;;16.80;99.90;;;;;;4941775;28;20191;-76
2023/08/29 05:54:21;;;;;;;9.57;8.57;;;16.70;99.90;;;;;;4938555;28;20282;-76
2023/08/29 05:56:46;;;;;;;9.03;7.60;;;16.90;99.90;;;;;;4942492;28;20183;-76
2023/08/29 05:59:12;;;;;;;9.30;8.03;;;16.90;99.90;;;;;;4945452;28;20205;-75
2023/08/29 06:01:37;;;;;;;8.47;7.57;;;16.80;99.90;;;;;;4942573;28;20206;-76
2023/08/29 06:04:04;;;;;;;8.43;7.33;;;16.80;99.90;;;;;;4936156;28;20191;-75
2023/08/29 06:06:31;;;;;;;9.83;8.70;;;16.90;99.90;;;;;;4940284;28;20202;-75
2023/08/29 06:08:58;;;;;;;8.87;6.60;;;17.00;99.90;;;;;;4936517;28;20430;-75
2023/08/29 06:11:25;;;;;;;8.20;7.40;;;17.00;99.90;;;;;;4942275;28;20467;-77
2023/08/29 06:13:51;;;;;;;8.10;6.50;;;17.00;99.90;;;;;;4939169;28;20518;-76
2023/08/29 06:16:17;;;;;;;7.60;6.90;;;17.00;99.90;;;;;;4934906;28;20549;-75
2023/08/29 06:18:43;;;;;;;8.43;7.63;;;16.90;99.90;;;;;;4938588;28;20184;-76
2023/08/29 06:21:12;;;;;;;8.60;7.33;;;16.90;99.90;;;;;;4938478;28;20191;-76
2023/08/29 06:23:37;;;;;;;8.20;7.40;;;16.80;99.90;;;;;;4936227;28;20907;-76
2023/08/29 06:26:03;;;;;;;8.73;7.47;;;16.80;99.90;;;;;;4937244;28;20470;-76
2023/08/29 06:28:29;;;;;;;11.27;7.67;;;16.90;99.90;;;;;;4941214;28;20201;-75
2023/08/29 06:30:54;;;;;;;8.00;7.20;;;16.90;99.90;;;;;;4940864;28;20219;-76
2023/08/29 06:33:20;;;;;;;8.50;7.70;;;16.90;99.90;;;;;;4939959;28;20944;-76
2023/08/29 06:35:46;;;;;;;9.40;8.40;;;16.90;99.90;;;;;;4938302;28;20653;-75
2023/08/29 06:38:11;;;;;;;10.43;8.07;;;16.90;99.90;;;;;;4935776;28;20962;-76
2023/08/29 06:40:37;;;;;;;9.00;8.10;;;17.00;99.90;;;;;;4938887;28;20183;-76
2023/08/29 06:43:02;;;;;;;8.53;7.73;;;17.10;99.90;;;;;;4935246;28;20192;-76
2023/08/29 06:45:28;;;;;;;12.93;8.30;;;17.10;99.90;;;;;;4939124;28;20215;-75
2023/08/29 06:47:53;;;;;;;8.90;7.17;;;17.10;99.90;;;;;;4938292;28;20211;-76
2023/08/29 06:50:22;;;;;;;9.50;7.67;;;17.00;99.90;;;;;;4938606;28;20215;-73
2023/08/29 06:52:47;;;;;;;8.07;7.23;;;17.00;99.90;;;;;;4929551;28;20315;-72
2023/08/29 06:55:13;;;;;;;8.13;7.33;;;17.00;99.90;;;;;;4939369;28;20537;-73
2023/08/29 06:57:39;;;;;;;9.20;7.40;;;17.10;99.90;;;;;;4937560;28;20191;-72
2023/08/29 07:00:05;;;;;;;10.60;7.53;;;17.00;99.90;;;;;;4936739;28;20301;-72
2023/08/29 07:02:30;;;;;;;10.00;7.00;;;17.00;99.90;;;;;;4936179;28;20195;-74
2023/08/29 07:04:56;;;;;;;10.20;6.40;;;17.10;99.90;;;;;;4937722;28;20850;-73
2023/08/29 07:07:21;;;;;;;7.80;6.80;;;17.20;99.90;;;;;;4937497;28;20180;-73
2023/08/29 07:09:47;;;;;;;7.77;5.93;;;17.20;99.90;;;;;;4939623;28;20183;-73
2023/08/29 07:12:13;;;;;;;7.03;6.00;;;17.20;99.90;;;;;;4939016;28;20208;-73
2023/08/29 07:14:38;;;;;;;7.73;6.23;;;17.30;99.90;;;;;;4938637;28;20670;-73
2023/08/29 07:17:05;;;;;;;6.73;6.03;;;17.30;99.90;;;;;;4944067;28;20246;-73
2023/08/29 07:19:30;;;;;;;11.40;8.07;;;17.30;99.90;;;;;;4941231;28;20590;-73
2023/08/29 07:21:56;;;;;;;6.47;5.90;;;17.20;99.90;;;;;;4943408;28;20434;-72
2023/08/29 07:24:22;;;;;;;6.93;6.23;;;17.30;99.90;;;;;;4941259;28;20357;-73
2023/08/29 07:26:47;;;;;;;9.70;6.10;;;17.40;99.90;;;;;;4942051;28;20187;-73
2023/08/29 07:29:13;;;;;;;7.30;6.60;;;17.40;99.90;;;;;;4942419;28;20287;-72
2023/08/29 07:31:38;;;;;;;6.83;6.20;;;17.60;99.90;;;;;;4941911;28;20219;-72
2023/08/29 07:34:04;;;;;;;7.57;6.33;;;17.50;99.90;;;;;;4940846;28;20179;-73
2023/08/29 07:36:30;;;;;;;8.30;6.47;;;17.60;99.90;;;;;;4939815;28;20191;-73
2023/08/29 07:38:56;;;;;;;7.43;6.73;;;17.60;99.90;;;;;;4937577;28;20194;-73
2023/08/29 07:41:22;;;;;;;6.10;5.60;;;17.70;99.90;;;;;;4943650;28;20600;-75
2023/08/29 07:43:48;;;;;;;7.90;7.13;;;17.80;99.90;;;;;;4942906;28;20419;-73
2023/08/29 07:46:13;;;;;;;7.73;7.03;;;17.70;99.90;;;;;;4940599;28;20234;-73
2023/08/29 07:48:39;;;;;;;10.30;6.73;;;17.70;99.90;;;;;;4938981;28;20195;-73
2023/08/29 07:51:05;;;;;;;8.27;6.97;;;17.70;99.90;;;;;;4945081;28;20183;-74
2023/08/29 07:53:30;;;;;;;7.90;7.20;;;17.70;99.90;;;;;;4944853;28;20775;-74
2023/08/29 07:55:56;;;;;;;10.20;7.03;;;17.80;99.90;;;;;;4941753;28;20206;-73
2023/08/29 07:58:21;;;;;;;7.53;6.80;;;17.80;99.90;;;;;;4942622;28;20195;-73
2023/08/29 08:00:47;;;;;;;8.10;7.30;;;17.80;99.90;;;;;;4936258;28;20190;-73
2023/08/29 08:03:13;;;;;;;7.40;6.80;;;17.80;99.90;;;;;;4942926;28;20187;-72
2023/08/29 08:05:38;;;;;;;7.33;6.63;;;17.90;99.90;;;;;;4932184;28;20303;-73
2023/08/29 08:08:04;;;;;;;7.00;6.30;;;17.90;99.90;;;;;;4939621;28;20179;-73
2023/08/29 08:10:30;;;;;;;7.23;6.53;;;17.90;99.90;;;;;;4937233;28;20199;-73
2023/08/29 08:12:56;;;;;;;10.93;8.53;;;18.00;99.90;;;;;;4939691;28;20925;-74
2023/08/29 08:15:21;;;;;;;6.97;6.33;;;17.90;99.90;;;;;;4941079;28;20685;-74
2023/08/29 08:17:47;;;;;;;7.87;6.30;;;18.00;99.90;;;;;;4942316;28;20767;-72
2023/08/29 08:20:13;;;;;;;7.43;6.73;;;18.00;99.90;;;;;;4939472;28;20553;-73
2023/08/29 08:22:40;;;;;;;7.03;6.30;;;18.00;99.90;;;;;;4939156;28;20540;-72
2023/08/29 08:25:07;;;;;;;7.40;6.50;;;18.00;99.90;;;;;;4936246;28;20218;-73
2023/08/29 08:27:34;;;;;;;7.17;6.47;;;18.00;99.90;;;;;;4939665;28;20450;-73
2023/08/29 08:30:00;;;;;;;7.60;6.40;;;17.90;99.90;;;;;;4938521;28;20501;-73
2023/08/29 08:32:26;;;;;;;7.60;6.90;;;17.90;99.90;;;;;;4940904;28;20455;-74
2023/08/29 08:34:53;;;;;;;7.07;6.13;;;17.90;99.90;;;;;;4941061;28;20535;-73
2023/08/29 08:37:19;;;;;;;8.67;6.30;;;17.90;99.90;;;;;;4945132;28;20601;-74
2023/08/29 08:39:45;;;;;;;7.80;6.73;;;17.90;99.90;;;;;;4941043;28;20422;-73
2023/08/29 08:42:11;;;;;;;9.67;6.57;;;18.00;99.90;;;;;;4940766;28;20414;-74
2023/08/29 08:44:37;;;;;;;7.80;6.80;;;18.10;99.90;;;;;;4940607;28;20317;-75
2023/08/29 08:47:05;;;;;;;8.27;7.07;;;18.10;99.90;;;;;;4941169;28;20960;-73
2023/08/29 08:49:31;;;;;;;7.77;7.07;;;18.10;99.90;;;;;;4940445;28;20423;-74
2023/08/29 08:51:58;;;;;;;6.97;6.37;;;18.00;99.90;;;;;;4944113;28;20791;-73
2023/08/29 08:54:25;;;;;;;8.20;7.20;;;18.10;99.90;;;;;;4945256;28;20470;-73
2023/08/29 08:56:50;;;;;;;7.80;7.10;;;18.20;99.90;;;;;;4947144;28;20474;-73
2023/08/29 08:59:17;;;;;;;7.63;6.87;;;18.30;99.90;;;;;;4940805;28;20466;-73
2023/08/29 09:01:43;;;;;;;8.13;7.30;;;18.30;99.90;;;;;;4941402;28;20254;-73
2023/08/29 09:04:09;;;;;;;7.87;7.07;;;18.30;99.90;;;;;;4933502;28;20432;-76
2023/08/29 09:06:35;;;;;;;7.97;7.17;;;18.30;99.90;;;;;;4941883;28;20194;-75
2023/08/29 09:09:23;;;;;;;8.73;7.07;;;18.30;99.90;;;;;;4937915;28;20407;-75
2023/08/29 09:12:00;;;;;;;7.93;7.13;;;18.20;99.90;;;;;;4940612;28;20430;-74
2023/08/29 09:14:27;;;;;;;8.37;7.50;;;18.30;99.90;;;;;;4938994;28;20912;-74
2023/08/29 09:17:00;;;;;;;7.97;7.17;;;18.30;99.90;;;;;;4940846;28;20450;-73
2023/08/29 09:19:29;;;;;;;8.13;7.43;;;18.30;99.90;;;;;;4938230;28;20838;-74
2023/08/29 09:21:55;;;;;;;8.47;7.67;;;18.30;99.90;;;;;;4938338;28;20447;-74
2023/08/29 09:24:35;;;;;;;7.77;7.07;;;18.30;99.90;;;;;;4938772;28;20463;-74
2023/08/29 09:27:09;;;;;;;8.50;7.60;;;18.30;99.90;;;;;;4943088;28;20433;-73
2023/08/29 09:29:35;;;;;;;10.13;6.87;;;18.10;99.90;;;;;;4942429;28;20501;-74
2023/08/29 09:32:12;;;;;;;8.00;7.20;;;18.20;99.90;;;;;;4934665;28;20534;-73
2023/08/29 09:34:37;;;;;;;12.50;7.67;;;18.30;99.90;;;;;;4938388;28;20845;-74
2023/08/29 09:37:03;;;;;;;8.20;7.40;;;18.30;99.90;;;;;;4938766;28;20434;-74
2023/08/29 09:39:29;;;;;;;7.83;7.03;;;18.50;99.90;;;;;;4938054;28;20242;-74
2023/08/29 09:42:06;;;;;;;11.10;7.60;;;18.50;99.90;;;;;;4936587;28;20419;-74
2023/08/29 09:44:40;;;;;;;8.30;7.50;;;18.60;99.90;;;;;;4935308;28;20207;-73
2023/08/29 09:47:07;;;;;;;7.20;6.50;;;18.70;99.90;;;;;;4936168;28;20499;-73
2023/08/29 09:49:48;;;;;;;7.43;6.60;;;18.70;99.90;;;;;;4948638;28;20459;-73
2023/08/29 09:52:15;;;;;;;8.17;6.23;;;18.70;99.90;;;;;;4937733;28;20424;-73
2023/08/29 09:55:01;;;;;;;10.20;6.77;;;18.80;99.90;;;;;;4937120;28;20834;-73
2023/08/29 09:57:31;;;;;;;7.60;6.50;;;18.90;99.90;;;;;;4935612;28;20434;-73
2023/08/29 09:59:57;;;;;;;7.57;6.80;;;19.00;99.90;;;;;;4931744;28;20431;-73
2023/08/29 10:02:25;;;;;;;10.30;7.33;;;19.10;99.90;;;;;;4935325;28;20781;-72
2023/08/29 10:04:59;;;;;;;6.33;5.73;;;19.10;99.90;;;;;;4934563;28;20534;-73
2023/08/29 10:07:32;;;;;;;7.17;6.00;;;19.20;99.90;;;;;;4937307;28;20419;-72
2023/08/29 10:09:59;;;;;;;10.20;5.90;;;19.30;99.90;;;;;;4938569;28;20462;-73
2023/08/29 10:12:27;;;;;;;6.67;6.00;;;19.30;99.90;;;;;;4939097;28;20534;-73
2023/08/29 10:14:54;;;;;;;8.57;6.47;;;19.50;99.90;;;;;;4937785;28;20802;-73
2023/08/29 10:17:20;;;;;;;7.27;6.47;;;19.60;99.90;;;;;;4937252;28;20435;-74
2023/08/29 10:19:47;;;;;;;7.80;6.80;;;19.60;99.90;;;;;;4939330;28;20776;-73
2023/08/29 10:22:13;;;;;;;6.27;5.67;;;19.60;99.90;;;;;;4935859;28;20420;-74
2023/08/29 10:24:42;;;;;;;6.67;6.03;;;19.60;99.90;;;;;;4934640;28;20874;-73
2023/08/29 10:27:07;;;;;;;8.60;5.90;;;19.70;99.90;;;;;;4934047;28;20704;-72
2023/08/29 10:29:33;;;;;;;8.40;6.40;;;19.80;99.90;;;;;;4937622;28;20437;-75
2023/08/29 10:32:01;;;;;;;7.43;5.93;;;19.90;99.90;;;;;;4931305;28;20212;-73
2023/08/29 10:34:28;;;;;;;6.60;6.00;;;20.00;99.90;;;;;;4936211;28;21513;-73
2023/08/29 10:36:55;;;;;;;6.07;5.57;;;20.20;99.90;;;;;;4940548;28;20956;-73
2023/08/29 10:39:21;;;;;;;7.80;5.37;;;20.30;99.90;;;;;;4935306;28;20768;-73
2023/08/29 10:41:48;;;;;;;6.73;5.97;;;20.40;99.90;;;;;;4934415;28;20436;-73
2023/08/29 10:44:28;;;;;;;6.87;6.17;;;20.40;99.90;;;;;;4934524;28;20195;-74
2023/08/29 10:47:12;;;;;;;8.40;5.63;;;20.50;99.90;;;;;;4942813;28;20408;-73
2023/08/29 10:49:42;;;;;;;5.80;5.27;;;20.60;99.90;;;;;;4938682;28;20495;-73
2023/08/29 10:52:08;;;;;;;5.50;5.00;;;20.80;99.90;;;;;;4940730;28;20411;-73
2023/08/29 10:54:34;;;;;;;8.27;5.50;;;21.00;99.90;;;;;;4941775;28;20442;-73
2023/08/29 10:57:00;;;;;;;5.70;5.17;;;21.10;99.90;;;;;;4934834;28;20447;-72
2023/08/29 10:59:32;;;;;;;8.63;6.77;;;21.20;99.90;;;;;;4932657;28;20188;-72
2023/08/29 11:02:20;;;;;;;6.13;5.00;;;21.30;99.90;;;;;;4938070;28;20211;-71
2023/08/29 11:04:46;;;;;;;5.53;4.83;;;21.20;99.90;;;;;;4941282;28;20522;-71
2023/08/29 11:07:25;;;;;;;6.20;5.10;;;21.40;99.90;;;;;;4940506;28;20849;-72
2023/08/29 11:10:14;;;;;;;6.77;5.80;;;21.40;99.90;;;;;;4940722;28;20188;-72
2023/08/29 11:13:03;;;;;;;5.50;4.50;;;21.20;99.90;;;;;;4935699;28;20599;-72
2023/08/29 11:15:47;;;;;;;5.23;4.00;;;21.40;99.90;;;;;;4940491;28;20946;-73
2023/08/29 11:18:41;;;;;;;5.00;3.87;;;21.60;99.90;;;;;;4937773;28;20447;-73
2023/08/29 11:21:09;;;;;;;6.17;3.67;;;21.80;99.90;;;;;;4934544;28;20449;-73
2023/08/29 11:23:39;;;;;;;7.33;3.83;;;22.00;99.90;;;;;;4943231;28;20867;-73
2023/08/29 11:26:05;;;;;;;7.73;4.10;;;22.20;99.90;;;;;;4936315;28;20475;-73
2023/08/29 11:28:35;;;;;;;3.83;3.30;;;22.30;99.90;;;;;;4940525;28;20439;-73
2023/08/29 11:31:00;;;;;;;5.53;3.97;;;22.40;99.90;;;;;;4936014;28;20267;-75
2023/08/29 11:33:33;;;;;;;4.90;3.40;;;22.50;99.90;;;;;;4934134;28;20449;-72
2023/08/29 11:36:00;;;;;;;7.63;3.80;;;22.60;99.90;;;;;;4942899;28;20207;-73
2023/08/29 11:38:30;;;;;;;3.70;2.80;;;22.60;99.90;;;;;;4938872;28;20451;-73
2023/08/29 11:40:57;;;;;;;5.00;3.10;;;22.60;99.90;;;;;;4940392;28;21085;-73
2023/08/29 11:43:26;;;;;;;3.63;3.13;;;22.60;99.90;;;;;;4938441;28;21287;-73
2023/08/29 11:45:54;;;;;;;3.50;3.20;;;22.60;99.90;;;;;;4940634;28;20875;-73
2023/08/29 11:48:24;;;;;;;4.33;3.27;;;22.70;99.90;;;;;;4939662;28;20457;-74
2023/08/29 11:51:11;;;;;;;3.60;3.00;;;22.70;99.90;;;;;;4939461;28;20880;-75
2023/08/29 11:53:38;;;;;;;5.97;4.30;;;22.60;99.90;;;;;;4939332;28;20439;-74
2023/08/29 11:56:08;;;;;;;4.90;3.67;;;22.50;99.90;;;;;;4938731;28;20482;-74
2023/08/29 11:58:36;;;;;;;5.50;4.07;;;22.40;99.90;;;;;;4938299;28;20527;-73
2023/08/29 12:01:03;;;;;;;7.87;4.83;;;22.10;99.90;;;;;;4936384;28;20454;-74
2023/08/29 12:03:29;;;;;;;6.63;4.37;;;22.00;99.90;;;;;;4938185;28;20438;-75
2023/08/29 12:05:59;;;;;;;4.80;4.10;;;22.10;99.90;;;;;;4929811;28;20921;-76
2023/08/29 12:08:44;;;;;;;4.37;3.80;;;22.10;99.90;;;;;;4935129;28;20183;-73
2023/08/29 12:11:12;;;;;;;8.47;4.03;;;21.90;99.90;;;;;;4932949;28;20434;-73
2023/08/29 12:13:40;;;;;;;6.33;3.70;;;22.00;99.90;;;;;;4935025;28;20436;-71
2023/08/29 12:16:14;;;;;;;4.23;3.43;;;22.00;99.90;;;;;;4936065;28;20454;-72
2023/08/29 12:18:40;;;;;;;3.37;3.07;;;22.10;99.90;;;;;;4937443;28;20879;-71
2023/08/29 12:21:11;;;;;;;6.80;3.60;;;22.10;99.90;;;;;;4931315;28;20457;-72
2023/08/29 12:23:37;;;;;;;3.70;3.10;;;22.10;99.90;;;;;;4934428;28;20649;-72
2023/08/29 12:26:03;;;;;;;5.07;3.30;;;22.10;99.90;;;;;;4934002;28;20483;-72
2023/08/29 12:28:28;;;;;;;5.30;4.20;;;22.00;99.90;;;;;;4934731;28;20602;-73
2023/08/29 12:30:56;;;;;;;4.80;3.40;;;21.80;99.90;;;;;;4936490;28;20804;-73
2023/08/29 12:33:22;;;;;;;4.67;4.00;;;21.80;99.90;;;;;;4933704;28;21710;-73
2023/08/29 12:35:48;;;;;;;6.00;4.30;;;21.90;99.90;;;;;;4938723;28;20522;-73
2023/08/29 12:38:13;;;;;;;4.40;4.00;;;21.90;99.90;;;;;;4937409;28;20443;-72
2023/08/29 12:40:39;;;;;;;5.43;3.83;;;21.90;99.90;;;;;;4936262;28;20290;-72
2023/08/29 12:43:06;;;;;;;6.20;3.90;;;22.00;99.90;;;;;;4934268;28;20574;-73
2023/08/29 12:45:32;;;;;;;5.23;3.97;;;21.90;99.90;;;;;;4933798;28;20553;-73
2023/08/29 12:47:57;;;;;;;7.57;3.90;;;22.00;99.90;;;;;;4938946;28;20442;-71